Terminal Aerodrome Forecast
Issued by NWS Louisville, KY

Home | Current Version | Previous Version | Text Only | Print | Product List | Glossary On
Versions: 1 2 3 4 5 6 7 8 9 10 11 12
000
FTUS43 KLMK 251700
TAFBWG
TAF
KBWG 251726Z 2518/2618 20010KT P6SM BKN025
     FM260000 25012KT P6SM VCTS BKN035CB
     FM260400 30012KT P6SM VCSH BKN020
     FM260700 34007KT 5SM BR OVC009
     FM261600 03007KT P6SM BKN015=

USA.gov is the U.S. government's official web portal to all federal, state and local government web resources and services.